sensor_id;sensor_type;location;lat;lon;timestamp;temperature;humidity
53114;DHT22;39009;53.166;6.232;2022-10-31T00:00:03;11.20;99.90
53114;DHT22;39009;53.166;6.232;2022-10-31T00:02:29;11.50;99.90
53114;DHT22;39009;53.166;6.232;2022-10-31T00:04:54;11.10;99.90
53114;DHT22;39009;53.166;6.232;2022-10-31T00:07:20;11.20;99.90
53114;DHT22;39009;53.166;6.232;2022-10-31T00:09:46;11.10;99.90
53114;DHT22;39009;53.166;6.232;2022-10-31T00:12:11;11.00;99.90
53114;DHT22;39009;53.166;6.232;2022-10-31T00:14:37;11.00;99.90
53114;DHT22;39009;53.166;6.232;2022-10-31T00:17:02;11.00;99.90
53114;DHT22;39009;53.166;6.232;2022-10-31T00:19:28;11.00;99.90
53114;DHT22;39009;53.166;6.232;2022-10-31T00:21:53;11.00;99.90
53114;DHT22;39009;53.166;6.232;2022-10-31T00:24:19;10.90;99.90
53114;DHT22;39009;53.166;6.232;2022-10-31T00:26:44;10.90;99.90
53114;DHT22;39009;53.166;6.232;2022-10-31T00:29:10;10.90;99.90
53114;DHT22;39009;53.166;6.232;2022-10-31T00:31:35;10.80;99.90
53114;DHT22;39009;53.166;6.232;2022-10-31T00:34:03;11.10;99.90
53114;DHT22;39009;53.166;6.232;2022-10-31T00:36:29;10.80;99.90
53114;DHT22;39009;53.166;6.232;2022-10-31T00:38:55;10.80;99.90
53114;DHT22;39009;53.166;6.232;2022-10-31T00:41:20;10.70;99.90
53114;DHT22;39009;53.166;6.232;2022-10-31T00:43:46;10.70;99.90
53114;DHT22;39009;53.166;6.232;2022-10-31T00:46:12;10.80;99.90
53114;DHT22;39009;53.166;6.232;2022-10-31T00:48:38;10.70;99.90
53114;DHT22;39009;53.166;6.232;2022-10-31T00:51:03;10.60;99.90
53114;DHT22;39009;53.166;6.232;2022-10-31T00:53:29;10.60;99.90
53114;DHT22;39009;53.166;6.232;2022-10-31T00:55:54;10.60;99.90
53114;DHT22;39009;53.166;6.232;2022-10-31T00:58:20;10.60;99.90
53114;DHT22;39009;53.166;6.232;2022-10-31T01:00:49;10.60;99.90
53114;DHT22;39009;53.166;6.232;2022-10-31T01:03:21;10.60;99.90
53114;DHT22;39009;53.166;6.232;2022-10-31T01:05:54;10.50;99.90
53114;DHT22;39009;53.166;6.232;2022-10-31T01:08:20;10.50;99.90
53114;DHT22;39009;53.166;6.232;2022-10-31T01:10:45;10.50;99.90
53114;DHT22;39009;53.166;6.232;2022-10-31T01:13:11;10.50;99.90
53114;DHT22;39009;53.166;6.232;2022-10-31T01:15:36;10.50;99.90
53114;DHT22;39009;53.166;6.232;2022-10-31T01:18:02;10.40;99.90
53114;DHT22;39009;53.166;6.232;2022-10-31T01:20:27;10.40;99.90
53114;DHT22;39009;53.166;6.232;2022-10-31T01:22:53;10.50;99.90
53114;DHT22;39009;53.166;6.232;2022-10-31T01:25:18;10.50;99.90
53114;DHT22;39009;53.166;6.232;2022-10-31T01:27:44;10.40;99.90
53114;DHT22;39009;53.166;6.232;2022-10-31T01:30:09;10.60;99.90
53114;DHT22;39009;53.166;6.232;2022-10-31T01:32:35;10.30;99.90
53114;DHT22;39009;53.166;6.232;2022-10-31T01:35:01;10.30;99.90
53114;DHT22;39009;53.166;6.232;2022-10-31T01:37:26;10.30;99.90
53114;DHT22;39009;53.166;6.232;2022-10-31T01:39:52;10.30;99.90
53114;DHT22;39009;53.166;6.232;2022-10-31T01:42:18;10.40;99.90
53114;DHT22;39009;53.166;6.232;2022-10-31T01:44:55;10.30;99.90
53114;DHT22;39009;53.166;6.232;2022-10-31T01:47:32;10.30;99.90
53114;DHT22;39009;53.166;6.232;2022-10-31T01:49:59;10.20;99.90
53114;DHT22;39009;53.166;6.232;2022-10-31T01:52:36;10.20;99.90
53114;DHT22;39009;53.166;6.232;2022-10-31T01:57:32;10.20;99.90
53114;DHT22;39009;53.166;6.232;2022-10-31T01:59:59;10.20;99.90
53114;DHT22;39009;53.166;6.232;2022-10-31T02:02:26;10.20;99.90
53114;DHT22;39009;53.166;6.232;2022-10-31T02:04:52;10.10;99.90
53114;DHT22;39009;53.166;6.232;2022-10-31T02:07:20;10.10;99.90
53114;DHT22;39009;53.166;6.232;2022-10-31T02:09:47;10.10;99.90
53114;DHT22;39009;53.166;6.232;2022-10-31T02:12:13;10.30;99.90
53114;DHT22;39009;53.166;6.232;2022-10-31T02:14:38;10.10;99.90
53114;DHT22;39009;53.166;6.232;2022-10-31T02:17:04;10.10;99.90
53114;DHT22;39009;53.166;6.232;2022-10-31T02:22:27;10.00;99.90
53114;DHT22;39009;53.166;6.232;2022-10-31T02:30:04;10.00;99.90
53114;DHT22;39009;53.166;6.232;2022-10-31T02:40:21;9.90;99.90
53114;DHT22;39009;53.166;6.232;2022-10-31T02:45:26;9.80;99.90
53114;DHT22;39009;53.166;6.232;2022-10-31T02:47:53;9.80;99.90
53114;DHT22;39009;53.166;6.232;2022-10-31T02:52:49;10.10;99.90
53114;DHT22;39009;53.166;6.232;2022-10-31T02:57:49;9.70;99.90
53114;DHT22;39009;53.166;6.232;2022-10-31T03:00:17;9.90;99.90
53114;DHT22;39009;53.166;6.232;2022-10-31T03:08:29;9.70;99.90
53114;DHT22;39009;53.166;6.232;2022-10-31T03:15:44;9.50;99.90
53114;DHT22;39009;53.166;6.232;2022-10-31T03:18:15;9.60;99.90
53114;DHT22;39009;53.166;6.232;2022-10-31T03:20:50;9.50;99.90
53114;DHT22;39009;53.166;6.232;2022-10-31T03:23:17;9.50;99.90
53114;DHT22;39009;53.166;6.232;2022-10-31T03:25:44;9.50;99.90
53114;DHT22;39009;53.166;6.232;2022-10-31T03:28:11;9.70;99.90
53114;DHT22;39009;53.166;6.232;2022-10-31T03:30:38;9.40;99.90
53114;DHT22;39009;53.166;6.232;2022-10-31T03:33:06;9.50;99.90
53114;DHT22;39009;53.166;6.232;2022-10-31T03:35:34;9.40;99.90
53114;DHT22;39009;53.166;6.232;2022-10-31T03:38:00;9.50;99.90
53114;DHT22;39009;53.166;6.232;2022-10-31T03:40:25;9.40;99.90
53114;DHT22;39009;53.166;6.232;2022-10-31T03:42:57;9.40;99.90
53114;DHT22;39009;53.166;6.232;2022-10-31T03:45:24;9.30;99.90
53114;DHT22;39009;53.166;6.232;2022-10-31T03:47:50;9.30;99.90
53114;DHT22;39009;53.166;6.232;2022-10-31T03:50:16;9.20;99.90
53114;DHT22;39009;53.166;6.232;2022-10-31T03:57:39;9.20;99.90
53114;DHT22;39009;53.166;6.232;2022-10-31T04:00:07;9.20;99.90
53114;DHT22;39009;53.166;6.232;2022-10-31T04:02:34;9.20;99.90
53114;DHT22;39009;53.166;6.232;2022-10-31T04:05:03;9.20;99.90
53114;DHT22;39009;53.166;6.232;2022-10-31T04:07:30;9.20;99.90
53114;DHT22;39009;53.166;6.232;2022-10-31T04:09:56;9.20;99.90
53114;DHT22;39009;53.166;6.232;2022-10-31T04:12:23;9.20;99.90
53114;DHT22;39009;53.166;6.232;2022-10-31T04:14:49;9.20;99.90
53114;DHT22;39009;53.166;6.232;2022-10-31T04:17:17;9.20;99.90
53114;DHT22;39009;53.166;6.232;2022-10-31T04:19:43;9.20;99.90
53114;DHT22;39009;53.166;6.232;2022-10-31T04:22:09;9.30;99.90
53114;DHT22;39009;53.166;6.232;2022-10-31T04:24:35;9.10;99.90
53114;DHT22;39009;53.166;6.232;2022-10-31T04:27:02;9.60;99.90
53114;DHT22;39009;53.166;6.232;2022-10-31T04:29:27;9.00;99.90
53114;DHT22;39009;53.166;6.232;2022-10-31T04:31:53;9.00;99.90
53114;DHT22;39009;53.166;6.232;2022-10-31T04:34:18;9.00;99.90
53114;DHT22;39009;53.166;6.232;2022-10-31T04:36:44;9.00;99.90
53114;DHT22;39009;53.166;6.232;2022-10-31T04:39:09;9.00;99.90
53114;DHT22;39009;53.166;6.232;2022-10-31T04:41:35;9.10;99.90
53114;DHT22;39009;53.166;6.232;2022-10-31T04:44:00;9.10;99.90
53114;DHT22;39009;53.166;6.232;2022-10-31T04:46:26;9.10;99.90
53114;DHT22;39009;53.166;6.232;2022-10-31T04:48:51;9.10;99.90
53114;DHT22;39009;53.166;6.232;2022-10-31T04:51:17;9.10;99.90
53114;DHT22;39009;53.166;6.232;2022-10-31T04:53:42;9.10;99.90
53114;DHT22;39009;53.166;6.232;2022-10-31T04:56:08;9.20;99.90
53114;DHT22;39009;53.166;6.232;2022-10-31T04:58:33;8.90;99.90
53114;DHT22;39009;53.166;6.232;2022-10-31T05:00:59;8.90;99.90
53114;DHT22;39009;53.166;6.232;2022-10-31T05:03:24;8.90;99.90
53114;DHT22;39009;53.166;6.232;2022-10-31T05:05:50;8.90;99.90
53114;DHT22;39009;53.166;6.232;2022-10-31T05:08:15;8.90;99.90
53114;DHT22;39009;53.166;6.232;2022-10-31T05:10:41;8.90;99.90
53114;DHT22;39009;53.166;6.232;2022-10-31T05:13:07;8.90;99.90
53114;DHT22;39009;53.166;6.232;2022-10-31T05:15:32;8.90;99.90
53114;DHT22;39009;53.166;6.232;2022-10-31T05:17:58;8.90;99.90
53114;DHT22;39009;53.166;6.232;2022-10-31T05:20:25;8.90;99.90
53114;DHT22;39009;53.166;6.232;2022-10-31T05:22:51;8.90;99.90
53114;DHT22;39009;53.166;6.232;2022-10-31T05:25:18;8.90;99.90
53114;DHT22;39009;53.166;6.232;2022-10-31T05:27:44;8.90;99.90
53114;DHT22;39009;53.166;6.232;2022-10-31T05:30:14;8.90;99.90
53114;DHT22;39009;53.166;6.232;2022-10-31T05:32:44;8.80;99.90
53114;DHT22;39009;53.166;6.232;2022-10-31T05:35:12;8.80;99.90
53114;DHT22;39009;53.166;6.232;2022-10-31T05:37:38;8.80;99.90
53114;DHT22;39009;53.166;6.232;2022-10-31T05:40:04;8.80;99.90
53114;DHT22;39009;53.166;6.232;2022-10-31T05:42:30;8.80;99.90
53114;DHT22;39009;53.166;6.232;2022-10-31T05:44:55;8.80;99.90
53114;DHT22;39009;53.166;6.232;2022-10-31T05:47:21;8.80;99.90
53114;DHT22;39009;53.166;6.232;2022-10-31T05:49:46;8.70;99.90
53114;DHT22;39009;53.166;6.232;2022-10-31T05:52:12;8.70;99.90
53114;DHT22;39009;53.166;6.232;2022-10-31T05:54:37;8.70;99.90
53114;DHT22;39009;53.166;6.232;2022-10-31T05:57:03;8.90;99.90
53114;DHT22;39009;53.166;6.232;2022-10-31T05:59:29;8.60;99.90
53114;DHT22;39009;53.166;6.232;2022-10-31T06:01:54;8.70;99.90
53114;DHT22;39009;53.166;6.232;2022-10-31T06:04:20;8.70;99.90
53114;DHT22;39009;53.166;6.232;2022-10-31T06:06:45;8.60;99.90
53114;DHT22;39009;53.166;6.232;2022-10-31T06:09:11;8.60;99.90
53114;DHT22;39009;53.166;6.232;2022-10-31T06:11:36;8.70;99.90
53114;DHT22;39009;53.166;6.232;2022-10-31T06:14:02;8.60;99.90
53114;DHT22;39009;53.166;6.232;2022-10-31T06:16:27;8.70;99.90
53114;DHT22;39009;53.166;6.232;2022-10-31T06:18:53;8.60;99.90
53114;DHT22;39009;53.166;6.232;2022-10-31T06:21:18;8.60;99.90
53114;DHT22;39009;53.166;6.232;2022-10-31T06:23:44;8.60;99.90
53114;DHT22;39009;53.166;6.232;2022-10-31T06:26:09;8.70;99.90
53114;DHT22;39009;53.166;6.232;2022-10-31T06:28:35;8.60;99.90
53114;DHT22;39009;53.166;6.232;2022-10-31T06:31:00;8.60;99.90
53114;DHT22;39009;53.166;6.232;2022-10-31T06:33:26;8.60;99.90
53114;DHT22;39009;53.166;6.232;2022-10-31T06:35:52;8.50;99.90
53114;DHT22;39009;53.166;6.232;2022-10-31T06:38:17;8.50;99.90
53114;DHT22;39009;53.166;6.232;2022-10-31T06:40:43;8.50;99.90
53114;DHT22;39009;53.166;6.232;2022-10-31T06:43:08;8.50;99.90
53114;DHT22;39009;53.166;6.232;2022-10-31T06:45:34;8.50;99.90
53114;DHT22;39009;53.166;6.232;2022-10-31T06:47:59;8.60;99.90
53114;DHT22;39009;53.166;6.232;2022-10-31T06:50:25;9.30;99.90
53114;DHT22;39009;53.166;6.232;2022-10-31T06:52:51;8.60;99.90
53114;DHT22;39009;53.166;6.232;2022-10-31T06:55:17;8.50;99.90
53114;DHT22;39009;53.166;6.232;2022-10-31T06:57:42;8.50;99.90
53114;DHT22;39009;53.166;6.232;2022-10-31T07:00:14;8.50;99.90
53114;DHT22;39009;53.166;6.232;2022-10-31T07:02:39;8.50;99.90
53114;DHT22;39009;53.166;6.232;2022-10-31T07:05:08;8.90;99.90
53114;DHT22;39009;53.166;6.232;2022-10-31T07:07:33;8.70;99.90
53114;DHT22;39009;53.166;6.232;2022-10-31T07:09:59;9.10;99.90
53114;DHT22;39009;53.166;6.232;2022-10-31T07:12:24;8.70;99.90
53114;DHT22;39009;53.166;6.232;2022-10-31T07:14:50;8.80;99.90
53114;DHT22;39009;53.166;6.232;2022-10-31T07:17:15;9.00;99.90
53114;DHT22;39009;53.166;6.232;2022-10-31T07:19:41;8.80;99.90
53114;DHT22;39009;53.166;6.232;2022-10-31T07:22:06;9.00;99.90
53114;DHT22;39009;53.166;6.232;2022-10-31T07:24:32;9.20;99.90
53114;DHT22;39009;53.166;6.232;2022-10-31T07:26:57;9.90;99.90
53114;DHT22;39009;53.166;6.232;2022-10-31T07:29:23;10.30;99.90
53114;DHT22;39009;53.166;6.232;2022-10-31T07:31:48;11.10;99.90
53114;DHT22;39009;53.166;6.232;2022-10-31T07:34:14;11.80;99.90
53114;DHT22;39009;53.166;6.232;2022-10-31T07:36:39;12.60;99.90
53114;DHT22;39009;53.166;6.232;2022-10-31T07:39:05;13.10;99.90
53114;DHT22;39009;53.166;6.232;2022-10-31T07:41:31;13.70;99.90
53114;DHT22;39009;53.166;6.232;2022-10-31T07:43:56;14.20;99.90
53114;DHT22;39009;53.166;6.232;2022-10-31T07:46:22;14.60;99.90
53114;DHT22;39009;53.166;6.232;2022-10-31T07:48:47;15.00;99.90
53114;DHT22;39009;53.166;6.232;2022-10-31T07:51:13;15.40;99.90
53114;DHT22;39009;53.166;6.232;2022-10-31T07:53:38;15.70;99.90
53114;DHT22;39009;53.166;6.232;2022-10-31T07:56:04;16.20;99.90
53114;DHT22;39009;53.166;6.232;2022-10-31T07:58:29;16.70;99.90
53114;DHT22;39009;53.166;6.232;2022-10-31T08:00:55;17.10;99.90
53114;DHT22;39009;53.166;6.232;2022-10-31T08:03:22;17.30;99.90
53114;DHT22;39009;53.166;6.232;2022-10-31T08:05:48;17.10;99.90
53114;DHT22;39009;53.166;6.232;2022-10-31T08:08:13;17.00;99.90
53114;DHT22;39009;53.166;6.232;2022-10-31T08:10:39;16.80;99.90
53114;DHT22;39009;53.166;6.232;2022-10-31T08:13:06;16.30;99.90
53114;DHT22;39009;53.166;6.232;2022-10-31T08:15:32;15.60;99.90
53114;DHT22;39009;53.166;6.232;2022-10-31T08:17:59;15.00;99.90
53114;DHT22;39009;53.166;6.232;2022-10-31T08:20:26;14.50;99.90
53114;DHT22;39009;53.166;6.232;2022-10-31T08:25:19;13.80;99.90
53114;DHT22;39009;53.166;6.232;2022-10-31T08:27:48;13.50;99.90
53114;DHT22;39009;53.166;6.232;2022-10-31T08:30:14;13.30;99.90
53114;DHT22;39009;53.166;6.232;2022-10-31T08:32:39;13.20;99.90
53114;DHT22;39009;53.166;6.232;2022-10-31T08:35:05;13.00;99.90
53114;DHT22;39009;53.166;6.232;2022-10-31T08:37:30;12.90;99.90
53114;DHT22;39009;53.166;6.232;2022-10-31T08:39:56;12.80;99.90
53114;DHT22;39009;53.166;6.232;2022-10-31T08:42:21;12.70;99.90
53114;DHT22;39009;53.166;6.232;2022-10-31T08:44:47;12.60;99.90
53114;DHT22;39009;53.166;6.232;2022-10-31T08:47:15;12.50;99.90
53114;DHT22;39009;53.166;6.232;2022-10-31T08:49:41;12.40;99.90
53114;DHT22;39009;53.166;6.232;2022-10-31T08:52:06;12.30;99.90
53114;DHT22;39009;53.166;6.232;2022-10-31T08:54:32;12.20;99.90
53114;DHT22;39009;53.166;6.232;2022-10-31T08:56:57;12.20;99.90
53114;DHT22;39009;53.166;6.232;2022-10-31T08:59:23;12.20;99.90
53114;DHT22;39009;53.166;6.232;2022-10-31T09:01:48;12.30;99.90
53114;DHT22;39009;53.166;6.232;2022-10-31T09:04:14;12.30;99.90
53114;DHT22;39009;53.166;6.232;2022-10-31T09:06:39;12.20;99.90
53114;DHT22;39009;53.166;6.232;2022-10-31T09:09:05;12.20;99.90
53114;DHT22;39009;53.166;6.232;2022-10-31T09:11:31;12.20;99.90
53114;DHT22;39009;53.166;6.232;2022-10-31T09:13:56;12.30;99.90
53114;DHT22;39009;53.166;6.232;2022-10-31T09:16:22;12.40;99.90
53114;DHT22;39009;53.166;6.232;2022-10-31T09:18:47;12.50;99.90
53114;DHT22;39009;53.166;6.232;2022-10-31T09:21:13;12.40;99.90
53114;DHT22;39009;53.166;6.232;2022-10-31T09:23:38;12.50;99.90
53114;DHT22;39009;53.166;6.232;2022-10-31T09:26:04;12.40;99.90
53114;DHT22;39009;53.166;6.232;2022-10-31T09:28:29;12.30;99.90
53114;DHT22;39009;53.166;6.232;2022-10-31T09:30:56;12.30;99.90
53114;DHT22;39009;53.166;6.232;2022-10-31T09:33:22;12.40;99.90
53114;DHT22;39009;53.166;6.232;2022-10-31T09:35:48;12.40;99.90
53114;DHT22;39009;53.166;6.232;2022-10-31T09:38:17;12.40;99.90
53114;DHT22;39009;53.166;6.232;2022-10-31T09:45:56;12.40;99.90
53114;DHT22;39009;53.166;6.232;2022-10-31T09:51:39;12.50;99.90
53114;DHT22;39009;53.166;6.232;2022-10-31T09:56:11;12.50;99.90
53114;DHT22;39009;53.166;6.232;2022-10-31T09:58:42;12.60;99.90
53114;DHT22;39009;53.166;6.232;2022-10-31T10:01:52;12.60;99.90
53114;DHT22;39009;53.166;6.232;2022-10-31T10:03:59;12.60;99.90
53114;DHT22;39009;53.166;6.232;2022-10-31T10:06:30;12.60;99.90
53114;DHT22;39009;53.166;6.232;2022-10-31T10:08:57;12.70;99.90
53114;DHT22;39009;53.166;6.232;2022-10-31T10:17:00;13.00;99.90
53114;DHT22;39009;53.166;6.232;2022-10-31T10:32:24;14.20;99.90
53114;DHT22;39009;53.166;6.232;2022-10-31T10:34:51;14.40;99.90
53114;DHT22;39009;53.166;6.232;2022-10-31T10:37:22;14.70;99.90
53114;DHT22;39009;53.166;6.232;2022-10-31T10:39:51;14.80;99.90
53114;DHT22;39009;53.166;6.232;2022-10-31T10:42:17;14.90;99.90
53114;DHT22;39009;53.166;6.232;2022-10-31T10:45:18;15.00;99.90
53114;DHT22;39009;53.166;6.232;2022-10-31T10:48:06;15.10;99.90
53114;DHT22;39009;53.166;6.232;2022-10-31T10:50:35;15.30;99.90
53114;DHT22;39009;53.166;6.232;2022-10-31T10:58:04;15.30;99.90
53114;DHT22;39009;53.166;6.232;2022-10-31T11:00:34;15.40;99.90
53114;DHT22;39009;53.166;6.232;2022-10-31T11:03:00;15.70;99.90
53114;DHT22;39009;53.166;6.232;2022-10-31T11:05:28;16.20;99.90
53114;DHT22;39009;53.166;6.232;2022-10-31T11:07:55;16.50;99.90
53114;DHT22;39009;53.166;6.232;2022-10-31T11:10:21;16.50;99.90
53114;DHT22;39009;53.166;6.232;2022-10-31T11:15:33;16.60;99.90
53114;DHT22;39009;53.166;6.232;2022-10-31T11:17:59;16.90;99.90
53114;DHT22;39009;53.166;6.232;2022-10-31T11:20:26;17.00;99.90
53114;DHT22;39009;53.166;6.232;2022-10-31T11:23:04;16.90;99.90
53114;DHT22;39009;53.166;6.232;2022-10-31T11:25:30;16.60;99.90
53114;DHT22;39009;53.166;6.232;2022-10-31T11:28:03;16.30;99.90
53114;DHT22;39009;53.166;6.232;2022-10-31T11:30:29;16.00;99.90
53114;DHT22;39009;53.166;6.232;2022-10-31T11:32:55;15.80;99.90
53114;DHT22;39009;53.166;6.232;2022-10-31T11:35:22;15.50;99.90
53114;DHT22;39009;53.166;6.232;2022-10-31T11:37:48;15.30;99.90
53114;DHT22;39009;53.166;6.232;2022-10-31T11:40:19;15.20;99.90
53114;DHT22;39009;53.166;6.232;2022-10-31T11:42:45;15.20;99.90
53114;DHT22;39009;53.166;6.232;2022-10-31T11:47:44;15.80;99.90
53114;DHT22;39009;53.166;6.232;2022-10-31T11:50:15;16.00;99.90
53114;DHT22;39009;53.166;6.232;2022-10-31T11:52:43;15.90;99.90
53114;DHT22;39009;53.166;6.232;2022-10-31T12:02:47;15.40;99.90
53114;DHT22;39009;53.166;6.232;2022-10-31T12:05:20;15.30;99.90
53114;DHT22;39009;53.166;6.232;2022-10-31T12:07:46;15.40;99.90
53114;DHT22;39009;53.166;6.232;2022-10-31T12:10:12;15.70;99.90
53114;DHT22;39009;53.166;6.232;2022-10-31T12:20:18;16.40;99.90
53114;DHT22;39009;53.166;6.232;2022-10-31T12:33:43;15.70;99.90
53114;DHT22;39009;53.166;6.232;2022-10-31T12:36:34;15.60;99.90
53114;DHT22;39009;53.166;6.232;2022-10-31T12:59:10;15.20;99.90
53114;DHT22;39009;53.166;6.232;2022-10-31T13:02:25;15.20;99.90
53114;DHT22;39009;53.166;6.232;2022-10-31T13:06:50;15.20;99.90
53114;DHT22;39009;53.166;6.232;2022-10-31T13:09:22;15.20;99.90
53114;DHT22;39009;53.166;6.232;2022-10-31T13:11:55;15.20;99.90
53114;DHT22;39009;53.166;6.232;2022-10-31T13:14:36;15.20;99.90
53114;DHT22;39009;53.166;6.232;2022-10-31T13:17:03;15.20;99.90
53114;DHT22;39009;53.166;6.232;2022-10-31T13:19:42;15.10;99.90
53114;DHT22;39009;53.166;6.232;2022-10-31T13:24:39;15.10;99.90
53114;DHT22;39009;53.166;6.232;2022-10-31T13:27:20;15.10;99.90
53114;DHT22;39009;53.166;6.232;2022-10-31T13:30:00;15.10;99.90
53114;DHT22;39009;53.166;6.232;2022-10-31T13:32:28;15.10;99.90
53114;DHT22;39009;53.166;6.232;2022-10-31T13:34:55;15.10;99.90
53114;DHT22;39009;53.166;6.232;2022-10-31T13:37:30;15.20;99.90
53114;DHT22;39009;53.166;6.232;2022-10-31T13:45:15;15.10;99.90
53114;DHT22;39009;53.166;6.232;2022-10-31T13:47:41;15.10;99.90
53114;DHT22;39009;53.166;6.232;2022-10-31T13:52:43;15.20;99.90
53114;DHT22;39009;53.166;6.232;2022-10-31T13:55:33;15.10;99.90
53114;DHT22;39009;53.166;6.232;2022-10-31T13:57:53;15.10;99.90
53114;DHT22;39009;53.166;6.232;2022-10-31T14:02:47;15.10;99.90
53114;DHT22;39009;53.166;6.232;2022-10-31T14:05:27;15.10;99.90
53114;DHT22;39009;53.166;6.232;2022-10-31T14:07:54;15.00;99.90
53114;DHT22;39009;53.166;6.232;2022-10-31T14:10:31;14.90;99.90
53114;DHT22;39009;53.166;6.232;2022-10-31T14:13:04;14.90;99.90
53114;DHT22;39009;53.166;6.232;2022-10-31T14:15:30;14.90;99.90
53114;DHT22;39009;53.166;6.232;2022-10-31T14:18:00;14.90;99.90
53114;DHT22;39009;53.166;6.232;2022-10-31T14:22:51;14.80;99.90
53114;DHT22;39009;53.166;6.232;2022-10-31T14:27:52;14.80;99.90
53114;DHT22;39009;53.166;6.232;2022-10-31T14:30:21;14.80;99.90
53114;DHT22;39009;53.166;6.232;2022-10-31T14:32:49;14.80;99.90
53114;DHT22;39009;53.166;6.232;2022-10-31T14:35:15;14.80;99.90
53114;DHT22;39009;53.166;6.232;2022-10-31T14:45:49;14.80;99.90
53114;DHT22;39009;53.166;6.232;2022-10-31T14:51:02;14.80;99.90
53114;DHT22;39009;53.166;6.232;2022-10-31T14:53:50;14.80;99.90
53114;DHT22;39009;53.166;6.232;2022-10-31T14:56:19;14.70;99.90
53114;DHT22;39009;53.166;6.232;2022-10-31T14:58:46;14.70;99.90
53114;DHT22;39009;53.166;6.232;2022-10-31T15:01:31;14.70;99.90
53114;DHT22;39009;53.166;6.232;2022-10-31T15:04:00;14.70;99.90
53114;DHT22;39009;53.166;6.232;2022-10-31T15:06:28;14.60;99.90
53114;DHT22;39009;53.166;6.232;2022-10-31T15:08:55;14.60;99.90
53114;DHT22;39009;53.166;6.232;2022-10-31T15:11:22;14.50;99.90
53114;DHT22;39009;53.166;6.232;2022-10-31T15:13:49;14.50;99.90
53114;DHT22;39009;53.166;6.232;2022-10-31T15:16:16;14.50;99.90
53114;DHT22;39009;53.166;6.232;2022-10-31T15:18:52;14.40;99.90
53114;DHT22;39009;53.166;6.232;2022-10-31T15:21:19;14.40;99.90
53114;DHT22;39009;53.166;6.232;2022-10-31T15:23:45;14.40;99.90
53114;DHT22;39009;53.166;6.232;2022-10-31T15:26:14;14.30;99.90
53114;DHT22;39009;53.166;6.232;2022-10-31T15:28:41;14.30;99.90
53114;DHT22;39009;53.166;6.232;2022-10-31T15:31:12;14.30;99.90
53114;DHT22;39009;53.166;6.232;2022-10-31T15:33:39;14.20;99.90
53114;DHT22;39009;53.166;6.232;2022-10-31T15:36:17;14.10;99.90
53114;DHT22;39009;53.166;6.232;2022-10-31T15:38:43;14.10;99.90
53114;DHT22;39009;53.166;6.232;2022-10-31T15:41:21;14.10;99.90
53114;DHT22;39009;53.166;6.232;2022-10-31T15:43:48;14.00;99.90
53114;DHT22;39009;53.166;6.232;2022-10-31T15:46:13;14.00;99.90
53114;DHT22;39009;53.166;6.232;2022-10-31T15:48:39;14.00;99.90
53114;DHT22;39009;53.166;6.232;2022-10-31T15:51:11;13.90;99.90
53114;DHT22;39009;53.166;6.232;2022-10-31T15:53:41;14.00;99.90
53114;DHT22;39009;53.166;6.232;2022-10-31T15:56:10;13.90;99.90
53114;DHT22;39009;53.166;6.232;2022-10-31T15:58:44;14.00;99.90
53114;DHT22;39009;53.166;6.232;2022-10-31T16:03:44;13.80;99.90
53114;DHT22;39009;53.166;6.232;2022-10-31T16:06:22;13.80;99.90
53114;DHT22;39009;53.166;6.232;2022-10-31T16:08:48;13.80;99.90
53114;DHT22;39009;53.166;6.232;2022-10-31T16:11:17;13.80;99.90
53114;DHT22;39009;53.166;6.232;2022-10-31T16:13:56;13.70;99.90
53114;DHT22;39009;53.166;6.232;2022-10-31T16:16:23;13.70;99.90
53114;DHT22;39009;53.166;6.232;2022-10-31T16:18:50;13.70;99.90
53114;DHT22;39009;53.166;6.232;2022-10-31T16:21:22;13.70;99.90
53114;DHT22;39009;53.166;6.232;2022-10-31T16:23:49;13.60;99.90
53114;DHT22;39009;53.166;6.232;2022-10-31T16:26:17;13.60;99.90
53114;DHT22;39009;53.166;6.232;2022-10-31T16:28:50;13.60;99.90
53114;DHT22;39009;53.166;6.232;2022-10-31T16:31:16;13.60;99.90
53114;DHT22;39009;53.166;6.232;2022-10-31T16:33:41;13.70;99.90
53114;DHT22;39009;53.166;6.232;2022-10-31T16:38:52;13.60;99.90
53114;DHT22;39009;53.166;6.232;2022-10-31T16:41:18;13.50;99.90
53114;DHT22;39009;53.166;6.232;2022-10-31T16:43:43;13.70;99.90
53114;DHT22;39009;53.166;6.232;2022-10-31T16:46:12;13.60;99.90
53114;DHT22;39009;53.166;6.232;2022-10-31T16:48:38;13.50;99.90
53114;DHT22;39009;53.166;6.232;2022-10-31T16:51:04;13.60;99.90
53114;DHT22;39009;53.166;6.232;2022-10-31T16:53:29;13.50;99.90
53114;DHT22;39009;53.166;6.232;2022-10-31T16:55:57;13.50;99.90
53114;DHT22;39009;53.166;6.232;2022-10-31T16:58:24;13.50;99.90
53114;DHT22;39009;53.166;6.232;2022-10-31T17:00:50;13.50;99.90
53114;DHT22;39009;53.166;6.232;2022-10-31T17:03:16;13.50;99.90
53114;DHT22;39009;53.166;6.232;2022-10-31T17:05:42;13.60;99.90
53114;DHT22;39009;53.166;6.232;2022-10-31T17:08:07;13.70;99.90
53114;DHT22;39009;53.166;6.232;2022-10-31T17:10:33;13.50;99.90
53114;DHT22;39009;53.166;6.232;2022-10-31T17:13:00;13.60;99.90
53114;DHT22;39009;53.166;6.232;2022-10-31T17:15:27;13.50;99.90
53114;DHT22;39009;53.166;6.232;2022-10-31T17:17:53;13.40;99.90
53114;DHT22;39009;53.166;6.232;2022-10-31T17:20:20;13.50;99.90
53114;DHT22;39009;53.166;6.232;2022-10-31T17:22:46;13.40;99.90
53114;DHT22;39009;53.166;6.232;2022-10-31T17:25:15;13.40;99.90
53114;DHT22;39009;53.166;6.232;2022-10-31T17:27:41;13.40;99.90
53114;DHT22;39009;53.166;6.232;2022-10-31T17:30:07;13.40;99.90
53114;DHT22;39009;53.166;6.232;2022-10-31T17:32:33;13.40;99.90
53114;DHT22;39009;53.166;6.232;2022-10-31T17:34:59;13.40;99.90
53114;DHT22;39009;53.166;6.232;2022-10-31T17:37:24;13.30;99.90
53114;DHT22;39009;53.166;6.232;2022-10-31T17:39:50;13.40;99.90
53114;DHT22;39009;53.166;6.232;2022-10-31T17:42:15;13.40;99.90
53114;DHT22;39009;53.166;6.232;2022-10-31T17:44:41;13.40;99.90
53114;DHT22;39009;53.166;6.232;2022-10-31T17:47:06;13.40;99.90
53114;DHT22;39009;53.166;6.232;2022-10-31T17:49:32;13.30;99.90
53114;DHT22;39009;53.166;6.232;2022-10-31T17:51:57;13.30;99.90
53114;DHT22;39009;53.166;6.232;2022-10-31T17:54:23;13.40;99.90
53114;DHT22;39009;53.166;6.232;2022-10-31T17:56:48;13.30;99.90
53114;DHT22;39009;53.166;6.232;2022-10-31T17:59:14;13.30;99.90
53114;DHT22;39009;53.166;6.232;2022-10-31T18:01:39;13.30;99.90
53114;DHT22;39009;53.166;6.232;2022-10-31T18:04:05;13.40;99.90
53114;DHT22;39009;53.166;6.232;2022-10-31T18:06:30;13.30;99.90
53114;DHT22;39009;53.166;6.232;2022-10-31T18:08:56;13.30;99.90
53114;DHT22;39009;53.166;6.232;2022-10-31T18:11:26;13.30;99.90
53114;DHT22;39009;53.166;6.232;2022-10-31T18:13:53;13.40;99.90
53114;DHT22;39009;53.166;6.232;2022-10-31T18:16:19;13.40;99.90
53114;DHT22;39009;53.166;6.232;2022-10-31T18:18:51;13.30;99.90
53114;DHT22;39009;53.166;6.232;2022-10-31T18:21:18;13.40;99.90